createdAt,value
2023-01-15T00:02:09.898Z,88.65
2023-01-15T00:04:36.905Z,88.73
2023-01-15T00:07:04.666Z,88.73
2023-01-15T00:09:31.737Z,88.78
2023-01-15T00:11:58.705Z,88.56
2023-01-15T00:14:25.889Z,88.67
2023-01-15T00:16:53.322Z,88.56
2023-01-15T00:19:20.436Z,88.83
2023-01-15T00:21:47.552Z,88.75
2023-01-15T00:24:40.503Z,88.56
2023-01-15T00:27:29.152Z,88.54
2023-01-15T00:29:56.039Z,88.53
2023-01-15T00:32:23.054Z,88.64
2023-01-15T00:34:50.184Z,88.51
2023-01-15T00:37:17.164Z,88.59
2023-01-15T00:39:44.082Z,88.72
2023-01-15T00:42:12.059Z,88.66
2023-01-15T00:44:39.306Z,88.38
2023-01-15T00:47:09.149Z,88.50
2023-01-15T00:49:36.087Z,88.75
2023-01-15T00:52:02.962Z,88.53
2023-01-15T00:54:30.092Z,88.58
2023-01-15T00:56:58.313Z,88.62
2023-01-15T00:59:25.493Z,88.63
2023-01-15T01:01:53.592Z,88.61
2023-01-15T01:04:20.603Z,88.60
2023-01-15T01:06:47.533Z,88.71
2023-01-15T01:09:15.736Z,88.72
2023-01-15T01:11:43.595Z,88.79
2023-01-15T01:14:12.118Z,88.71
2023-01-15T01:16:40.690Z,88.72
2023-01-15T01:19:19.196Z,88.73
2023-01-15T01:21:47.185Z,88.73
2023-01-15T01:24:19.851Z,88.71
2023-01-15T01:26:47.528Z,88.75
2023-01-15T01:29:22.219Z,88.70
2023-01-15T01:31:50.987Z,88.71
2023-01-15T01:34:19.056Z,88.68
2023-01-15T01:36:46.329Z,88.88
2023-01-15T01:39:16.559Z,88.86
2023-01-15T01:41:44.181Z,88.65
2023-01-15T01:44:33.054Z,88.50
2023-01-15T01:47:02.258Z,88.56
2023-01-15T01:49:29.581Z,88.70
2023-01-15T01:52:03.556Z,88.66
2023-01-15T01:54:32.035Z,88.84
2023-01-15T01:56:59.241Z,88.74
2023-01-15T01:59:28.792Z,88.72
2023-01-15T02:01:56.032Z,88.68
2023-01-15T02:04:23.976Z,88.63
2023-01-15T02:06:51.812Z,88.96
2023-01-15T02:09:19.144Z,88.82
2023-01-15T02:11:46.121Z,88.75
2023-01-15T02:14:21.516Z,89.00
2023-01-15T02:17:16.342Z,88.67
2023-01-15T02:19:57.385Z,88.80
2023-01-15T02:22:53.543Z,88.66
2023-01-15T02:25:34.814Z,88.90
2023-01-15T02:28:10.147Z,88.85
2023-01-15T02:30:44.217Z,88.67
2023-01-15T02:33:24.350Z,88.76
2023-01-15T02:35:58.627Z,88.80
2023-01-15T02:38:29.110Z,88.94
2023-01-15T02:40:59.693Z,89.01
2023-01-15T02:43:30.131Z,89.05
2023-01-15T02:45:58.896Z,88.77
2023-01-15T02:48:28.524Z,89.13
2023-01-15T02:51:02.629Z,88.81
2023-01-15T02:53:31.085Z,88.89
2023-01-15T02:56:06.458Z,88.90
2023-01-15T02:58:43.019Z,89.09
2023-01-15T03:01:15.952Z,88.99
2023-01-15T03:03:56.250Z,88.98
2023-01-15T03:06:41.949Z,88.70
2023-01-15T03:09:09.756Z,88.74
2023-01-15T03:11:40.838Z,88.61
2023-01-15T03:14:16.233Z,88.77
2023-01-15T03:16:48.052Z,88.37
2023-01-15T03:19:30.320Z,88.54
2023-01-15T03:22:16.484Z,88.61
2023-01-15T03:24:52.321Z,88.50
2023-01-15T03:27:20.904Z,88.51
2023-01-15T03:29:58.871Z,88.65
2023-01-15T03:32:26.493Z,88.66
2023-01-15T03:34:57.127Z,88.75
2023-01-15T03:37:27.544Z,88.95
2023-01-15T03:39:57.053Z,88.76
2023-01-15T03:43:28.943Z,88.71
2023-01-15T03:46:02.907Z,88.95
2023-01-15T03:48:41.991Z,88.93
2023-01-15T03:51:13.378Z,88.93
2023-01-15T03:53:41.959Z,88.72
2023-01-15T03:56:15.185Z,88.81
2023-01-15T03:58:48.320Z,89.02
2023-01-15T04:01:23.379Z,88.96
2023-01-15T04:03:51.255Z,88.70
2023-01-15T04:06:24.361Z,88.92
2023-01-15T04:08:54.888Z,89.09
2023-01-15T04:11:24.618Z,88.99
2023-01-15T04:13:55.327Z,88.92
2023-01-15T04:16:38.382Z,88.73
2023-01-15T04:19:05.490Z,88.98
2023-01-15T04:21:35.332Z,88.76
2023-01-15T04:24:02.317Z,88.93
2023-01-15T04:26:29.255Z,88.85
2023-01-15T04:28:56.201Z,89.05
2023-01-15T04:31:23.344Z,88.98
2023-01-15T04:33:50.983Z,88.84
2023-01-15T04:36:17.918Z,88.92
2023-01-15T04:38:44.912Z,89.19
2023-01-15T04:41:30.484Z,89.08
2023-01-15T04:44:09.573Z,89.22
2023-01-15T04:46:39.352Z,89.29
2023-01-15T04:49:09.087Z,89.40
2023-01-15T04:51:36.237Z,89.49
2023-01-15T04:54:05.278Z,89.31
2023-01-15T04:56:33.017Z,89.57
2023-01-15T04:59:01.793Z,89.76
2023-01-15T05:01:29.547Z,89.74
2023-01-15T05:03:58.417Z,89.63
2023-01-15T05:06:26.109Z,89.86
2023-01-15T05:08:53.383Z,89.98
2023-01-15T05:11:20.436Z,90.53
2023-01-15T05:13:47.377Z,90.76
2023-01-15T05:16:20.743Z,90.97
2023-01-15T05:18:48.238Z,90.75
2023-01-15T05:21:19.133Z,91.27
2023-01-15T05:23:47.892Z,91.28
2023-01-15T05:26:15.125Z,91.34
2023-01-15T05:28:42.480Z,91.41
2023-01-15T05:31:11.581Z,91.26
2023-01-15T05:33:39.489Z,91.61
2023-01-15T05:36:09.109Z,91.21
2023-01-15T05:38:36.552Z,91.26
2023-01-15T05:41:24.930Z,91.13
2023-01-15T05:43:52.081Z,91.40
2023-01-15T05:46:19.094Z,91.23
2023-01-15T05:48:46.250Z,91.35
2023-01-15T05:51:14.464Z,91.37
2023-01-15T05:53:41.813Z,91.27
2023-01-15T05:56:08.992Z,91.06
2023-01-15T05:58:36.132Z,90.99
2023-01-15T06:01:10.691Z,91.07
2023-01-15T06:03:38.328Z,90.88
2023-01-15T06:06:05.539Z,90.87
2023-01-15T06:08:32.479Z,90.63
2023-01-15T06:10:59.539Z,90.64
2023-01-15T06:13:29.910Z,90.60
2023-01-15T06:15:56.938Z,90.38
2023-01-15T06:18:26.439Z,90.61
2023-01-15T06:20:53.595Z,90.46
2023-01-15T06:23:21.034Z,90.15
2023-01-15T06:25:48.058Z,90.01
2023-01-15T06:28:15.083Z,89.95
2023-01-15T06:30:42.061Z,90.07
2023-01-15T06:33:09.597Z,89.79
2023-01-15T06:35:36.664Z,89.66
2023-01-15T06:38:03.836Z,89.73
2023-01-15T06:40:30.949Z,89.18
2023-01-15T06:43:19.721Z,89.31
2023-01-15T06:46:09.895Z,89.17
2023-01-15T06:48:36.845Z,89.07
2023-01-15T06:51:03.882Z,88.65
2023-01-15T06:53:31.154Z,88.86
2023-01-15T06:55:58.301Z,88.85
2023-01-15T06:58:25.486Z,88.65
2023-01-15T07:00:56.023Z,88.56
2023-01-15T07:03:23.621Z,88.85
2023-01-15T07:05:50.624Z,88.52
2023-01-15T07:08:17.797Z,88.55
2023-01-15T07:10:44.787Z,88.38
2023-01-15T07:13:11.945Z,88.54
2023-01-15T07:15:40.390Z,88.67
2023-01-15T07:18:07.366Z,88.32
2023-01-15T07:20:34.397Z,88.14
2023-01-15T07:23:01.493Z,88.09
2023-01-15T07:25:28.485Z,87.95
2023-01-15T07:27:55.376Z,88.03
2023-01-15T07:30:22.416Z,88.02
2023-01-15T07:32:49.469Z,88.08
2023-01-15T07:35:16.994Z,87.78
2023-01-15T07:37:44.345Z,87.74
2023-01-15T07:40:12.001Z,87.46
2023-01-15T07:42:58.899Z,87.58
2023-01-15T07:45:50.267Z,87.29
2023-01-15T07:48:35.915Z,87.07
2023-01-15T07:51:02.906Z,87.09
2023-01-15T07:53:29.907Z,86.98
2023-01-15T07:55:57.368Z,86.65
2023-01-15T07:58:24.361Z,86.66
2023-01-15T08:00:51.375Z,87.01
2023-01-15T08:03:18.457Z,86.63
2023-01-15T08:05:45.454Z,86.47
2023-01-15T08:08:16.288Z,86.29
2023-01-15T08:11:02.696Z,86.35
2023-01-15T08:13:54.396Z,86.30
2023-01-15T08:16:21.521Z,86.04
2023-01-15T08:18:48.533Z,86.02
2023-01-15T08:21:16.560Z,85.80
2023-01-15T08:23:46.290Z,85.58
2023-01-15T08:26:13.511Z,85.46
2023-01-15T08:28:40.584Z,85.31
2023-01-15T08:31:08.913Z,85.09
2023-01-15T08:33:35.913Z,84.75
2023-01-15T08:36:03.261Z,84.76
2023-01-15T08:38:30.459Z,84.89
2023-01-15T08:41:00.347Z,84.57
2023-01-15T08:43:27.670Z,84.54
2023-01-15T08:45:59.272Z,84.37
2023-01-15T08:48:27.749Z,84.07
2023-01-15T08:50:54.724Z,84.19
2023-01-15T08:53:21.907Z,84.40
2023-01-15T08:55:49.198Z,84.04
2023-01-15T08:58:16.789Z,83.96
2023-01-15T09:00:44.824Z,83.92
2023-01-15T09:03:11.940Z,83.88
2023-01-15T09:05:39.018Z,83.82
2023-01-15T09:08:07.640Z,83.62
2023-01-15T09:10:35.616Z,83.87
2023-01-15T09:13:03.315Z,84.09
2023-01-15T09:15:32.074Z,84.04
2023-01-15T09:17:59.350Z,83.86
2023-01-15T09:20:26.606Z,83.97
2023-01-15T09:22:53.775Z,83.47
2023-01-15T09:25:23.976Z,83.54
2023-01-15T09:27:51.268Z,83.58
2023-01-15T09:30:21.092Z,83.69
2023-01-15T09:32:48.555Z,83.39
2023-01-15T09:35:15.764Z,83.40
2023-01-15T09:37:42.855Z,83.26
2023-01-15T09:40:40.877Z,83.37
2023-01-15T09:43:37.444Z,83.36
2023-01-15T09:46:15.545Z,82.86
2023-01-15T09:48:48.994Z,82.97
2023-01-15T09:51:31.970Z,83.22
2023-01-15T09:54:07.962Z,82.63
2023-01-15T09:56:37.362Z,82.80
2023-01-15T09:59:15.092Z,82.76
2023-01-15T10:01:42.885Z,82.22
2023-01-15T10:04:16.336Z,82.17
2023-01-15T10:06:52.652Z,81.85
2023-01-15T10:12:37.166Z,81.51
2023-01-15T10:15:24.612Z,81.23
2023-01-15T10:17:57.680Z,81.21
2023-01-15T10:21:00.611Z,81.07
2023-01-15T10:23:40.524Z,81.29
2023-01-15T10:26:19.493Z,81.21
2023-01-15T10:29:00.549Z,81.17
2023-01-15T10:31:36.894Z,80.92
2023-01-15T10:34:39.130Z,80.89
2023-01-15T10:37:14.845Z,80.76
2023-01-15T10:40:16.358Z,81.02
2023-01-15T10:45:57.177Z,80.57
2023-01-15T10:48:33.036Z,80.45
2023-01-15T10:51:04.046Z,80.49
2023-01-15T10:54:00.707Z,80.34
2023-01-15T10:57:13.751Z,80.41
2023-01-15T11:02:38.540Z,79.70
2023-01-15T11:05:06.569Z,79.88
2023-01-15T11:07:41.668Z,79.67
2023-01-15T11:10:22.236Z,79.50
2023-01-15T11:13:15.526Z,79.34
2023-01-15T11:16:05.689Z,78.99
2023-01-15T11:18:58.690Z,79.08
2023-01-15T11:21:27.431Z,79.68
2023-01-15T11:23:56.455Z,79.61
2023-01-15T11:26:28.135Z,79.48
2023-01-15T11:28:56.135Z,79.22
2023-01-15T11:31:23.435Z,79.47
2023-01-15T11:34:01.713Z,79.03
2023-01-15T11:36:29.892Z,79.13
2023-01-15T11:38:57.329Z,79.17
2023-01-15T11:42:06.764Z,79.27
2023-01-15T11:44:52.626Z,79.39
2023-01-15T11:47:39.212Z,79.54
2023-01-15T11:50:37.299Z,79.89
2023-01-15T11:53:04.650Z,79.84
2023-01-15T11:55:31.564Z,79.71
2023-01-15T11:57:58.803Z,80.00
2023-01-15T12:00:28.567Z,80.04
2023-01-15T12:03:00.549Z,80.16
2023-01-15T12:05:30.401Z,80.21
2023-01-15T12:07:58.805Z,80.21
2023-01-15T12:10:53.296Z,80.05
2023-01-15T12:13:47.079Z,80.23
2023-01-15T12:16:32.906Z,80.11
2023-01-15T12:19:23.012Z,80.11
2023-01-15T12:21:56.181Z,80.11
2023-01-15T12:24:29.173Z,80.32
2023-01-15T12:27:44.216Z,80.28
2023-01-15T12:30:28.758Z,80.41
2023-01-15T12:33:12.174Z,80.43
2023-01-15T12:35:42.464Z,80.46
2023-01-15T12:38:27.685Z,80.68
2023-01-15T12:40:56.533Z,80.44
2023-01-15T12:43:44.728Z,80.38
2023-01-15T12:46:21.995Z,80.41
2023-01-15T12:48:54.666Z,80.46
2023-01-15T12:51:52.409Z,80.42
2023-01-15T12:54:34.190Z,80.33
2023-01-15T12:57:09.136Z,80.28
2023-01-15T12:59:37.893Z,80.52
2023-01-15T13:02:28.954Z,80.44
2023-01-15T13:05:09.076Z,80.44
2023-01-15T13:10:23.352Z,80.67
2023-01-15T13:12:53.798Z,80.52
2023-01-15T13:15:22.361Z,80.64
2023-01-15T13:18:15.614Z,80.63
2023-01-15T13:20:51.699Z,80.93
2023-01-15T13:23:27.950Z,80.85
2023-01-15T13:26:16.712Z,80.70
2023-01-15T13:28:53.429Z,80.27
2023-01-15T13:31:42.461Z,80.39
2023-01-15T13:34:36.007Z,80.47
2023-01-15T13:37:16.946Z,80.40
2023-01-15T13:39:45.260Z,80.76
2023-01-15T13:42:39.938Z,80.71
2023-01-15T13:45:43.286Z,81.19
2023-01-15T13:48:21.050Z,80.61
2023-01-15T13:50:59.270Z,80.51
2023-01-15T13:53:28.924Z,80.36
2023-01-15T13:56:06.586Z,80.57
2023-01-15T14:01:51.024Z,80.47
2023-01-15T14:07:14.079Z,80.27
2023-01-15T14:12:50.581Z,80.02
2023-01-15T14:15:30.243Z,79.96
2023-01-15T14:18:35.088Z,80.26
2023-01-15T14:21:23.168Z,80.35
2023-01-15T14:28:26.702Z,80.52
2023-01-15T14:31:32.257Z,80.38
2023-01-15T14:34:58.772Z,80.73
2023-01-15T14:45:39.088Z,80.80
2023-01-15T14:48:27.132Z,80.75
2023-01-15T14:51:26.975Z,80.94
2023-01-15T14:54:25.432Z,80.74
2023-01-15T14:57:31.207Z,80.61
2023-01-15T15:00:04.136Z,80.44
2023-01-15T15:08:43.007Z,81.16
2023-01-15T15:11:37.724Z,81.06
2023-01-15T15:15:25.990Z,81.27
2023-01-15T15:18:13.730Z,81.32
2023-01-15T15:21:28.832Z,81.06
2023-01-15T15:24:49.525Z,81.06
2023-01-15T15:27:22.610Z,81.09
2023-01-15T15:33:41.992Z,81.36
2023-01-15T15:43:58.079Z,81.49
2023-01-15T15:46:55.998Z,81.39
2023-01-15T15:53:27.699Z,81.12
2023-01-15T16:10:41.572Z,81.52
2023-01-15T16:34:11.826Z,81.57
2023-01-15T17:11:31.895Z,82.08
2023-01-15T17:14:21.657Z,82.26
2023-01-15T17:16:59.155Z,82.27
2023-01-15T17:19:27.436Z,82.45
2023-01-15T17:22:02.279Z,82.54
2023-01-15T17:24:58.706Z,82.29
2023-01-15T17:30:39.934Z,82.33
2023-01-15T17:33:44.487Z,82.50
2023-01-15T17:36:37.755Z,82.57
2023-01-15T17:39:20.390Z,82.42
2023-01-15T17:42:45.669Z,82.33
2023-01-15T17:45:31.900Z,82.40
2023-01-15T17:48:18.582Z,82.49
2023-01-15T17:51:04.890Z,82.61
2023-01-15T17:53:50.604Z,82.62
2023-01-15T18:02:50.155Z,82.53
2023-01-15T18:05:27.733Z,82.59
2023-01-15T18:07:57.528Z,82.54
2023-01-15T18:10:37.115Z,82.32
2023-01-15T18:13:19.481Z,82.07
2023-01-15T18:16:26.792Z,82.08
2023-01-15T18:19:01.640Z,81.97
2023-01-15T18:21:51.323Z,81.85
2023-01-15T18:31:28.952Z,81.86
2023-01-15T18:34:03.361Z,81.91
2023-01-15T18:36:50.399Z,81.83
2023-01-15T18:43:13.939Z,81.96
2023-01-15T18:46:19.749Z,81.77
2023-01-15T18:48:57.904Z,82.00
2023-01-15T18:51:28.956Z,81.83
2023-01-15T18:56:50.470Z,81.98
2023-01-15T18:59:22.368Z,81.98
2023-01-15T19:04:46.943Z,82.11
2023-01-15T19:07:21.423Z,81.88
2023-01-15T19:09:52.438Z,81.88
2023-01-15T19:12:22.340Z,81.90
2023-01-15T19:23:56.525Z,82.10
2023-01-15T19:29:30.270Z,82.27
2023-01-15T19:32:06.869Z,82.34
2023-01-15T19:34:56.087Z,82.44
2023-01-15T19:37:32.661Z,82.55
2023-01-15T19:40:09.020Z,82.63
2023-01-15T19:46:02.899Z,82.26
2023-01-15T19:48:49.949Z,82.50
2023-01-15T19:51:21.733Z,82.58
2023-01-15T19:54:06.449Z,82.73
2023-01-15T19:56:36.502Z,82.70
2023-01-15T19:59:04.786Z,82.65
2023-01-15T20:01:35.954Z,82.64
2023-01-15T20:04:12.782Z,82.66
2023-01-15T20:06:49.609Z,82.62
2023-01-15T20:09:23.007Z,82.93
2023-01-15T20:12:25.799Z,83.04
2023-01-15T20:18:03.828Z,82.92
2023-01-15T20:20:35.838Z,82.76
2023-01-15T20:23:07.666Z,82.77
2023-01-15T20:25:39.499Z,82.84
2023-01-15T20:31:28.737Z,83.08
2023-01-15T20:34:12.492Z,83.12
2023-01-15T20:36:45.981Z,83.35
2023-01-15T20:39:18.796Z,83.24
2023-01-15T20:42:09.258Z,83.07
2023-01-15T20:44:58.091Z,83.28
2023-01-15T20:47:49.243Z,83.18
2023-01-15T20:50:21.388Z,83.14
2023-01-15T20:52:51.915Z,83.14
2023-01-15T20:55:25.175Z,83.08
2023-01-15T20:57:53.791Z,83.14
2023-01-15T21:00:29.807Z,83.28
2023-01-15T21:03:01.217Z,83.25
2023-01-15T21:05:31.771Z,83.47
2023-01-15T21:08:03.989Z,83.46
2023-01-15T21:10:39.779Z,83.35
2023-01-15T21:13:09.687Z,83.69
2023-01-15T21:15:44.042Z,83.71
2023-01-15T21:18:21.405Z,83.61
2023-01-15T21:20:50.909Z,83.62
2023-01-15T21:23:28.425Z,83.54
2023-01-15T21:26:03.089Z,83.67
2023-01-15T21:28:31.967Z,83.40
2023-01-15T21:31:05.656Z,83.59
2023-01-15T21:33:34.869Z,83.45
2023-01-15T21:36:11.267Z,83.45
2023-01-15T21:38:43.468Z,83.62
2023-01-15T21:41:23.652Z,83.68
2023-01-15T21:44:16.071Z,84.00
2023-01-15T21:46:49.030Z,83.82
2023-01-15T21:49:20.752Z,83.67
2023-01-15T21:51:49.566Z,83.92
2023-01-15T21:54:36.862Z,83.91
2023-01-15T21:57:08.537Z,83.88
2023-01-15T21:59:36.393Z,84.13
2023-01-15T22:02:05.149Z,83.82
2023-01-15T22:04:35.583Z,83.93
2023-01-15T22:07:03.187Z,84.19
2023-01-15T22:09:30.809Z,84.03
2023-01-15T22:11:57.811Z,84.04
2023-01-15T22:14:30.183Z,84.17
2023-01-15T22:16:59.082Z,84.24
2023-01-15T22:23:12.653Z,84.03
2023-01-15T22:26:21.308Z,83.93
2023-01-15T22:29:17.668Z,83.87
2023-01-15T22:35:13.393Z,84.14
2023-01-15T22:40:30.675Z,84.17
2023-01-15T22:43:26.923Z,84.14
2023-01-15T22:45:53.903Z,84.41
2023-01-15T22:48:20.883Z,84.14
2023-01-15T22:50:47.828Z,84.27
2023-01-15T22:53:15.253Z,84.04
2023-01-15T22:55:42.343Z,83.78
2023-01-15T22:58:09.331Z,84.13
2023-01-15T23:00:36.372Z,83.88
2023-01-15T23:03:08.821Z,84.01
2023-01-15T23:05:39.322Z,84.08
2023-01-15T23:08:06.842Z,83.99
2023-01-15T23:10:33.765Z,84.02
2023-01-15T23:13:00.940Z,84.03
2023-01-15T23:15:27.849Z,83.96
2023-01-15T23:17:57.216Z,84.09
2023-01-15T23:20:24.214Z,84.01
2023-01-15T23:22:51.160Z,84.04
2023-01-15T23:25:18.093Z,84.02
2023-01-15T23:27:45.729Z,84.04
2023-01-15T23:30:12.934Z,84.30
2023-01-15T23:32:39.970Z,84.26
2023-01-15T23:35:08.425Z,84.07
2023-01-15T23:37:35.426Z,83.94
2023-01-15T23:40:02.385Z,84.32
2023-01-15T23:42:49.368Z,84.30
2023-01-15T23:45:34.991Z,84.33
2023-01-15T23:48:01.980Z,84.19
2023-01-15T23:50:29.035Z,84.29
2023-01-15T23:52:55.953Z,84.53
2023-01-15T23:55:23.006Z,84.58
2023-01-15T23:57:49.912Z,84.63
